createdAt,value
2023-05-06T00:02:50.184Z,19.90
2023-05-06T00:05:38.722Z,19.60
2023-05-06T00:08:28.537Z,19.30
2023-05-06T00:14:06.091Z,18.90
2023-05-06T00:16:54.568Z,18.90
2023-05-06T00:31:01.201Z,19.00
2023-05-06T00:33:49.685Z,18.90
2023-05-06T00:36:38.962Z,18.80
2023-05-06T00:39:27.685Z,18.90
2023-05-06T00:42:17.426Z,19.10
2023-05-06T00:45:07.523Z,19.10
2023-05-06T00:47:57.477Z,19.20
2023-05-06T00:50:46.552Z,19.30
2023-05-06T00:53:35.063Z,19.40
2023-05-06T00:56:23.721Z,19.50
2023-05-06T00:59:13.655Z,19.40
2023-05-06T01:02:02.304Z,19.00
2023-05-06T01:04:51.788Z,19.00
2023-05-06T01:07:47.660Z,19.10
2023-05-06T01:10:43.486Z,16.90
2023-05-06T01:13:37.775Z,18.90
2023-05-06T01:16:30.886Z,18.80
2023-05-06T01:19:35.907Z,18.70
2023-05-06T01:22:25.990Z,18.70
2023-05-06T01:25:21.284Z,18.80
2023-05-06T01:28:11.686Z,18.90
2023-05-06T01:31:06.489Z,19.00
2023-05-06T01:34:07.085Z,19.00
2023-05-06T01:37:04.739Z,18.90
2023-05-06T01:39:58.007Z,19.10
2023-05-06T01:42:50.854Z,19.30
2023-05-06T01:45:41.590Z,19.40
2023-05-06T01:51:21.675Z,19.50
2023-05-06T01:54:10.236Z,19.50
2023-05-06T01:56:58.708Z,19.60
2023-05-06T01:59:48.550Z,19.50
2023-05-06T02:02:37.097Z,19.50
2023-05-06T02:05:26.510Z,19.50
2023-05-06T02:08:15.339Z,19.50
2023-05-06T02:11:03.765Z,19.50
2023-05-06T02:13:52.277Z,19.50
2023-05-06T02:16:42.205Z,19.60
2023-05-06T02:19:30.978Z,19.60
2023-05-06T02:22:19.508Z,19.60
2023-05-06T02:25:09.538Z,19.50
2023-05-06T02:27:58.272Z,19.60
2023-05-06T02:30:46.869Z,19.50
2023-05-06T02:33:36.766Z,19.50
2023-05-06T02:36:25.228Z,19.40
2023-05-06T02:39:13.710Z,19.40
2023-05-06T02:42:02.626Z,19.40
2023-05-06T02:44:51.538Z,19.40
2023-05-06T02:47:40.618Z,19.40
2023-05-06T02:50:30.519Z,19.40
2023-05-06T02:53:18.959Z,19.40
2023-05-06T02:56:07.854Z,19.30
2023-05-06T02:58:56.520Z,19.20
2023-05-06T03:01:45.213Z,19.10
2023-05-06T03:04:33.822Z,19.00
2023-05-06T03:07:23.953Z,19.00
2023-05-06T03:10:12.617Z,19.00
2023-05-06T03:13:01.088Z,19.00
2023-05-06T03:15:53.790Z,19.00
2023-05-06T03:18:42.514Z,19.00
2023-05-06T03:21:31.612Z,19.00
2023-05-06T03:24:21.488Z,19.00
2023-05-06T03:27:09.994Z,19.00
2023-05-06T03:29:58.597Z,19.00
2023-05-06T03:32:48.635Z,18.90
2023-05-06T03:35:37.241Z,18.80
2023-05-06T03:38:25.831Z,18.70
2023-05-06T04:09:27.735Z,18.00
2023-05-06T04:12:16.215Z,17.90
2023-05-06T04:15:07.561Z,17.80
2023-05-06T04:17:56.214Z,17.80
2023-05-06T04:20:46.740Z,17.80
2023-05-06T05:00:14.803Z,18.50
2023-05-06T05:03:03.301Z,17.60
2023-05-06T05:05:53.171Z,17.60
2023-05-06T05:08:41.621Z,17.80
2023-05-06T05:11:30.155Z,18.00
2023-05-06T05:14:18.689Z,18.20
2023-05-06T05:17:07.389Z,18.30
2023-05-06T05:19:55.950Z,18.50
2023-05-06T05:22:45.926Z,18.30
2023-05-06T05:25:34.389Z,18.20
2023-05-06T05:28:23.003Z,18.30
2023-05-06T05:31:11.512Z,18.10
2023-05-06T05:34:00.035Z,18.10
2023-05-06T05:36:48.622Z,18.20
2023-05-06T05:39:38.561Z,18.30
2023-05-06T05:42:27.820Z,18.50
2023-05-06T05:45:16.711Z,18.60
2023-05-06T05:48:05.592Z,18.80
2023-05-06T05:50:54.121Z,18.90
2023-05-06T05:53:42.680Z,19.00
2023-05-06T05:56:32.544Z,18.90
2023-05-06T05:59:21.036Z,18.70
2023-05-06T06:02:09.546Z,18.90
2023-05-06T06:04:58.087Z,19.10
2023-05-06T06:07:47.210Z,19.20
2023-05-06T06:10:35.806Z,19.30
2023-05-06T06:13:28.384Z,19.50
2023-05-06T06:16:17.543Z,19.50
2023-05-06T06:19:06.788Z,19.70
2023-05-06T06:21:55.260Z,19.50
2023-05-06T06:24:44.625Z,19.50
2023-05-06T06:41:42.002Z,20.50
2023-05-06T06:47:20.784Z,20.80
2023-05-06T06:50:11.381Z,20.80
2023-05-06T06:58:37.762Z,21.60
2023-05-06T07:01:26.540Z,21.80
2023-05-06T07:04:16.574Z,22.00
2023-05-06T07:07:05.199Z,22.30
2023-05-06T07:12:42.661Z,22.30
2023-05-06T07:15:31.236Z,22.30
2023-05-06T07:18:20.907Z,22.20
2023-05-06T07:21:10.835Z,22.10
2023-05-06T07:23:59.414Z,22.20
2023-05-06T07:29:37.517Z,22.70
2023-05-06T07:32:26.073Z,22.70
2023-05-06T07:35:14.592Z,22.90
2023-05-06T07:38:04.639Z,23.10
2023-05-06T07:40:53.173Z,23.10
2023-05-06T07:43:41.749Z,23.20
2023-05-06T07:46:30.763Z,23.40
2023-05-06T07:52:08.251Z,23.70
2023-05-06T07:57:46.871Z,23.80
2023-05-06T08:00:35.525Z,23.80
2023-05-06T08:03:24.319Z,23.70
2023-05-06T08:06:12.962Z,22.70
2023-05-06T08:09:01.591Z,23.70
2023-05-06T08:11:51.809Z,23.70
2023-05-06T08:14:40.871Z,23.80
2023-05-06T08:17:29.364Z,23.80
2023-05-06T08:20:18.009Z,23.80
2023-05-06T08:23:06.460Z,23.80
2023-05-06T08:25:54.964Z,23.80
2023-05-06T08:28:44.873Z,23.80
2023-05-06T08:31:33.480Z,23.80
2023-05-06T08:34:22.348Z,23.70
2023-05-06T08:37:10.844Z,23.60
2023-05-06T08:40:00.184Z,23.60
2023-05-06T08:42:50.612Z,23.60
2023-05-06T08:45:40.945Z,23.60
2023-05-06T08:48:30.089Z,23.60
2023-05-06T08:51:19.788Z,23.70
2023-05-06T08:54:10.582Z,23.70
2023-05-06T08:57:00.640Z,23.80
2023-05-06T08:59:49.339Z,23.90
2023-05-06T09:02:41.986Z,23.80
2023-05-06T09:05:31.494Z,23.90
2023-05-06T09:08:20.165Z,24.00
2023-05-06T09:11:25.069Z,24.10
2023-05-06T09:14:15.717Z,24.10
2023-05-06T09:17:04.304Z,24.20
2023-05-06T09:19:56.999Z,24.20
2023-05-06T09:22:45.702Z,24.20
2023-05-06T09:25:34.284Z,24.30
2023-05-06T09:31:15.260Z,24.30
2023-05-06T09:34:03.752Z,24.20
2023-05-06T09:36:57.206Z,24.20
2023-05-06T09:39:45.922Z,24.30
2023-05-06T09:42:35.663Z,24.30
2023-05-06T09:45:24.884Z,24.40
2023-05-06T09:51:02.688Z,24.60
2023-05-06T09:53:53.656Z,24.70
2023-05-06T09:56:43.650Z,24.90
2023-05-06T09:59:32.486Z,24.90
2023-05-06T10:02:21.344Z,25.00
2023-05-06T10:05:11.555Z,25.10
2023-05-06T10:08:01.643Z,25.10
2023-05-06T10:10:51.947Z,25.30
2023-05-06T10:13:41.593Z,25.20
2023-05-06T10:16:31.117Z,25.20
2023-05-06T10:19:24.578Z,25.20
2023-05-06T10:22:20.710Z,25.20
2023-05-06T10:25:17.032Z,25.30
2023-05-06T10:28:13.664Z,25.40
2023-05-06T10:31:14.762Z,25.40
2023-05-06T10:39:47.674Z,25.80
2023-05-06T10:42:36.334Z,25.80
2023-05-06T10:48:15.117Z,26.10
2023-05-06T10:51:28.394Z,26.20
2023-05-06T10:54:26.264Z,26.20
2023-05-06T10:57:14.810Z,26.20
2023-05-06T11:00:03.351Z,26.10
2023-05-06T11:03:03.425Z,26.20
2023-05-06T11:05:52.886Z,26.30
2023-05-06T11:17:32.430Z,27.60
2023-05-06T11:20:24.533Z,27.20
2023-05-06T11:28:52.456Z,28.90
2023-05-06T11:31:43.458Z,27.20
2023-05-06T11:34:33.145Z,27.40
2023-05-06T11:37:27.830Z,27.60
2023-05-06T11:40:16.908Z,27.80
2023-05-06T11:43:12.407Z,28.00
2023-05-06T11:46:01.063Z,28.10
2023-05-06T13:14:18.182Z,29.80
2023-05-06T13:17:07.022Z,29.80
2023-05-06T13:19:58.028Z,29.80
2023-05-06T13:22:54.178Z,29.70
2023-05-06T13:25:56.361Z,29.70
2023-05-06T13:28:51.832Z,29.70
2023-05-06T13:31:40.274Z,29.80
2023-05-06T13:34:29.259Z,29.80
2023-05-06T13:37:19.095Z,29.70
2023-05-06T13:40:08.931Z,29.70
2023-05-06T13:42:57.495Z,29.70
2023-05-06T13:45:45.984Z,29.70
2023-05-06T13:48:34.405Z,29.90
2023-05-06T13:51:22.885Z,29.80
2023-05-06T13:54:12.820Z,29.60
2023-05-06T13:57:01.461Z,29.40
2023-05-06T13:59:50.097Z,29.30
2023-05-06T14:02:38.604Z,29.20
2023-05-06T14:05:27.231Z,29.10
2023-05-06T14:08:15.883Z,29.10
2023-05-06T14:11:05.875Z,29.10
2023-05-06T14:13:56.398Z,29.20
2023-05-06T14:16:44.997Z,29.30
2023-05-06T14:19:33.417Z,29.50
2023-05-06T14:22:21.852Z,29.50
2023-05-06T14:25:11.381Z,29.50
2023-05-06T14:28:01.604Z,29.50
2023-05-06T14:30:51.982Z,29.50
2023-05-06T14:33:40.510Z,29.50
2023-05-06T14:36:29.029Z,29.60
2023-05-06T14:39:17.561Z,29.60
2023-05-06T14:42:06.143Z,29.60
2023-05-06T14:44:56.076Z,29.60
2023-05-06T14:47:44.934Z,29.50
2023-05-06T14:50:33.584Z,29.50
2023-05-06T14:53:22.251Z,29.40
2023-05-06T14:56:11.616Z,29.30
2023-05-06T14:59:01.918Z,29.20
2023-05-06T15:01:53.650Z,29.30
2023-05-06T15:04:42.240Z,29.30
2023-05-06T15:07:30.747Z,29.40
2023-05-06T15:10:19.356Z,29.30
2023-05-06T15:13:08.185Z,29.30
2023-05-06T15:15:56.759Z,27.70
2023-05-06T15:18:46.663Z,29.20
2023-05-06T15:21:35.191Z,29.20
2023-05-06T15:24:24.874Z,29.20
2023-05-06T15:27:13.657Z,29.20
2023-05-06T15:30:04.388Z,29.10
2023-05-06T15:32:53.044Z,29.10
2023-05-06T15:35:43.027Z,28.90
2023-05-06T18:20:35.544Z,25.60
2023-05-06T18:23:24.097Z,25.50
2023-05-06T18:26:18.741Z,25.50
2023-05-06T18:29:13.056Z,25.40
2023-05-06T18:32:02.658Z,25.30
2023-05-06T18:34:51.217Z,25.30
2023-05-06T18:37:39.792Z,25.30
2023-05-06T18:40:28.378Z,25.20
2023-05-06T18:43:18.312Z,25.20
2023-05-06T18:46:06.966Z,25.20
2023-05-06T18:48:56.013Z,25.20
2023-05-06T18:51:44.691Z,25.10
2023-05-06T18:54:33.170Z,25.10
2023-05-06T18:57:21.853Z,25.00
2023-05-06T19:00:13.616Z,25.10
2023-05-06T19:03:02.215Z,25.00
2023-05-06T19:05:50.839Z,24.90
2023-05-06T19:08:39.726Z,24.90
2023-05-06T19:11:28.238Z,24.90
2023-05-06T19:14:17.043Z,24.90
2023-05-06T19:17:07.003Z,24.90
2023-05-06T19:19:55.538Z,24.90
2023-05-06T19:22:44.362Z,24.90
2023-05-06T19:25:33.147Z,24.90
2023-05-06T19:28:21.657Z,24.90
2023-05-06T19:31:10.655Z,24.90
2023-05-06T19:34:00.609Z,24.90
2023-05-06T19:36:49.295Z,24.90
2023-05-06T19:39:37.815Z,24.80
2023-05-06T19:42:26.275Z,24.90
2023-05-06T19:45:17.466Z,24.70
2023-05-06T19:48:08.740Z,24.70
2023-05-06T19:50:58.880Z,24.80
2023-05-06T19:53:48.989Z,24.80
2023-05-06T19:56:37.547Z,24.70
2023-05-06T19:59:26.044Z,24.60
2023-05-06T20:02:16.575Z,24.60
2023-05-06T20:05:06.186Z,24.50
2023-05-06T20:07:56.101Z,24.50
2023-05-06T21:21:17.679Z,23.50
2023-05-06T21:24:06.825Z,23.40
2023-05-06T21:29:44.529Z,23.00
2023-05-06T21:32:34.414Z,23.00
2023-05-06T21:35:25.062Z,22.90
2023-05-06T21:38:13.567Z,22.90
2023-05-06T21:41:02.059Z,22.90
2023-05-06T21:43:50.581Z,22.70
2023-05-06T21:46:39.212Z,22.80
2023-05-06T21:49:29.394Z,22.90
2023-05-06T21:52:18.041Z,22.90
2023-05-06T21:57:55.852Z,22.60
2023-05-06T22:00:44.321Z,22.50
2023-05-06T22:03:33.018Z,22.30
2023-05-06T22:06:23.739Z,22.50
2023-05-06T22:09:12.398Z,22.40
2023-05-06T22:12:01.611Z,22.40
2023-05-06T22:14:50.167Z,22.30
2023-05-06T22:17:38.922Z,22.40
2023-05-06T22:20:28.433Z,22.50
2023-05-06T22:23:19.563Z,22.60
2023-05-06T22:26:08.149Z,22.70
2023-05-06T22:28:57.146Z,22.70
2023-05-06T22:31:45.823Z,22.70
2023-05-06T22:37:23.301Z,22.80
2023-05-06T22:40:14.013Z,22.80
2023-05-06T22:43:02.459Z,22.80
2023-05-06T22:45:51.085Z,22.80
2023-05-06T22:48:39.598Z,22.80
2023-05-06T22:51:28.438Z,22.80
2023-05-06T22:54:16.938Z,22.80
2023-05-06T22:57:06.928Z,22.90
2023-05-06T22:59:55.481Z,22.80
2023-05-06T23:02:44.072Z,22.80
2023-05-06T23:05:32.699Z,22.80
2023-05-06T23:08:21.553Z,22.70
2023-05-06T23:11:10.125Z,22.70
2023-05-06T23:14:00.114Z,22.70
2023-05-06T23:16:48.709Z,22.70
2023-05-06T23:19:37.497Z,22.60
2023-05-06T23:22:26.574Z,22.70
2023-05-06T23:25:15.409Z,22.60
2023-05-06T23:28:04.080Z,22.60
2023-05-06T23:30:54.021Z,22.60
2023-05-06T23:33:42.712Z,22.50
2023-05-06T23:36:31.397Z,22.50
2023-05-06T23:39:20.011Z,22.50
2023-05-06T23:42:08.529Z,22.40
2023-05-06T23:44:57.106Z,22.00
2023-05-06T23:50:35.879Z,22.10
2023-05-06T23:53:24.332Z,22.20
2023-05-06T23:56:12.827Z,22.20
2023-05-06T23:59:01.344Z,22.20
